Arcadia, Florida
Current Conditions -  °F | °C
As of 10:53 PM on Wednesday 26 Nov 2014 (Local Time) from KPGD Reporting Station
Clear Clear  
Wind Chill: 12°   Ceiling: Unl
Heat Index: 12°   Visibility: 10mi
Dew Point:   Wind: 6mph
Humidity: 80%   Direction: 360°N
Pressure: 30.25"   Gusts: NA
Location:  27.22°N, 81.86°W
Report Text: KPGD 270353Z AUTO 36005KT 10SM CLR 12/08 A3025 RMK AO2 SLP243 T01170083
Loading
Personal Weather Stations






























Interactive Weather Map New forecast layout! Learn more

10-Day Weather Forecast

Advertisements
Track Severe Weather on mobile